Time;durP1;ratioP1;P1;durP2;ratioP2;P2;SDS_P1;SDS_P2;PMS_P1;PMS_P2;Temp;Humidity;BMP_temperature;BMP_pressure;BME280_temperature;BME280_humidity;BME280_pressure;Samples;Min_cycle;Max_cycle;Signal;HPM_P1;HPM_P2
2022/03/03 00:00:34;;;;;;;29.42;17.30;;;;;;;5.98;53.81;100848.38;6323582;22;20018;-81
2022/03/03 00:03:00;;;;;;;30.50;16.63;;;;;;;6.25;53.10;100835.59;6325514;22;20074;-80
2022/03/03 00:05:28;;;;;;;31.08;17.38;;;;;;;6.43;52.22;100843.75;6336459;22;19999;-81
2022/03/03 00:07:57;;;;;;;29.80;16.75;;;;;;;6.68;51.57;100849.47;6333113;22;20003;-81
2022/03/03 00:10:31;;;;;;;26.10;15.65;;;;;;;6.88;50.95;100853.06;6332230;22;20008;-80
2022/03/03 00:13:01;;;;;;;29.48;15.98;;;;;;;6.98;50.20;100850.47;6305085;22;20058;-80
2022/03/03 00:15:27;;;;;;;32.78;16.77;;;;;;;6.54;51.64;100857.69;6317390;22;20007;-81
2022/03/03 00:17:56;;;;;;;26.95;15.52;;;;;;;6.48;52.43;100860.00;6301687;22;19996;-80
2022/03/03 00:20:25;;;;;;;32.92;17.02;;;;;;;6.67;51.48;100858.34;6303601;22;20011;-81
2022/03/03 00:22:57;;;;;;;34.08;16.40;;;;;;;6.76;51.31;100860.19;6329835;22;20011;-80
2022/03/03 00:25:33;;;;;;;33.38;18.10;;;;;;;6.43;52.82;100860.38;6279409;22;19991;-81
2022/03/03 00:28:03;;;;;;;31.15;17.15;;;;;;;6.60;52.84;100862.44;6322766;22;19995;-81
2022/03/03 00:31:00;;;;;;;32.17;18.73;;;;;;;6.83;52.26;100862.31;6325733;22;20057;-79
2022/03/03 00:33:36;;;;;;;30.88;17.98;;;;;;;7.06;51.51;100863.84;6325454;22;20436;-82
2022/03/03 00:36:05;;;;;;;30.42;16.67;;;;;;;6.88;51.44;100866.22;6300161;22;20011;-81
2022/03/03 00:38:43;;;;;;;30.45;16.17;;;;;;;6.79;51.79;100868.81;6299309;22;20010;-80
2022/03/03 00:41:18;;;;;;;26.48;15.43;;;;;;;6.46;52.11;100875.94;6327385;22;20007;-80
2022/03/03 00:43:49;;;;;;;28.00;15.73;;;;;;;6.44;52.44;100869.94;6327225;22;20037;-81
2022/03/03 00:46:15;;;;;;;26.67;15.77;;;;;;;6.45;52.73;100874.25;6324469;22;20011;-80
2022/03/03 00:48:41;;;;;;;28.67;15.63;;;;;;;6.45;52.55;100870.78;6322765;22;20026;-83
2022/03/03 00:51:09;;;;;;;27.77;15.15;;;;;;;6.15;53.67;100872.34;6321248;22;20062;-80
2022/03/03 00:54:00;;;;;;;30.63;16.80;;;;;;;6.09;54.21;100866.75;6328503;22;20029;-81
2022/03/03 00:56:26;;;;;;;31.08;16.88;;;;;;;6.25;53.78;100861.91;6331827;22;20433;-80
2022/03/03 00:58:55;;;;;;;32.08;16.73;;;;;;;6.64;52.83;100863.84;6292615;22;20090;-81
2022/03/03 01:01:21;;;;;;;29.02;15.50;;;;;;;6.40;53.32;100860.63;6325087;22;20007;-81
2022/03/03 01:03:52;;;;;;;33.03;17.23;;;;;;;6.31;54.17;100853.50;6331071;22;20056;-81
2022/03/03 01:06:26;;;;;;;30.20;16.88;;;;;;;6.17;54.69;100853.78;6331902;22;20011;-81
2022/03/03 01:08:52;;;;;;;29.75;16.52;;;;;;;6.09;55.50;100856.22;6299791;22;20019;-81
2022/03/03 01:11:27;;;;;;;29.90;17.70;;;;;;;6.05;55.60;100844.28;6328221;22;19999;-81
2022/03/03 01:14:28;;;;;;;32.60;16.80;;;;;;;6.05;55.61;100839.00;6329502;22;20031;-81
2022/03/03 01:17:13;;;;;;;30.00;16.88;;;;;;;6.14;55.92;100840.88;6307742;22;20026;-82
2022/03/03 01:23:00;;;;;;;31.65;17.50;;;;;;;6.13;56.00;100831.34;6329641;22;20019;-79
2022/03/03 01:26:04;;;;;;;34.72;19.50;;;;;;;6.23;55.96;100833.06;6332764;22;20015;-80
2022/03/03 01:42:57;;;;;;;34.30;19.13;;;;;;;6.67;55.57;100815.34;6311862;22;20076;-80
2022/03/03 01:51:32;;;;;;;39.03;21.00;;;;;;;6.63;56.06;100798.97;6327378;22;20015;-81
2022/03/03 02:05:02;;;;;;;41.67;21.77;;;;;;;6.38;56.94;100773.06;6316681;22;20011;-80
2022/03/03 02:07:31;;;;;;;34.85;19.02;;;;;;;6.47;56.77;100769.66;6282616;22;20260;-80
2022/03/03 02:10:18;;;;;;;27.90;16.55;;;;;;;6.11;58.37;100754.31;6329512;22;20004;-81
2022/03/03 02:15:49;;;;;;;33.10;18.27;;;;;;;5.92;59.04;100754.16;6245167;23;20024;-81
2022/03/03 02:26:40;;;;;;;37.77;15.10;;;;;;;5.85;58.67;100743.28;6303409;22;20019;-81
2022/03/03 02:29:29;;;;;;;38.00;19.80;;;;;;;5.62;60.34;100733.81;6258946;22;20075;-80
2022/03/03 02:32:15;;;;;;;34.58;19.70;;;;;;;5.91;58.85;100739.34;6306000;22;20022;-81
2022/03/03 02:35:41;;;;;;;34.67;19.15;;;;;;;5.90;59.65;100743.75;6323370;22;20015;-80
2022/03/03 02:38:22;;;;;;;38.47;18.80;;;;;;;6.26;58.63;100732.00;6257525;22;20015;-79
2022/03/03 02:41:51;;;;;;;36.97;19.35;;;;;;;5.88;60.15;100737.81;6304807;22;20038;-81
2022/03/03 02:44:17;;;;;;;32.75;18.20;;;;;;;6.05;59.77;100739.88;6330213;22;20015;-81
2022/03/03 02:46:57;;;;;;;25.58;13.18;;;;;;;6.25;59.19;100735.56;6279656;22;20388;-82
2022/03/03 02:49:49;;;;;;;33.20;19.00;;;;;;;6.22;58.98;100733.22;6305708;22;20015;-81
2022/03/03 02:54:53;;;;;;;34.85;19.75;;;;;;;5.58;61.55;100725.34;6307160;22;20026;-79
2022/03/03 03:06:14;;;;;;;33.07;17.27;;;;;;;5.68;60.98;100731.53;6272397;22;20062;-80
2022/03/03 03:09:19;;;;;;;31.73;16.52;;;;;;;5.67;61.36;100731.63;6244569;22;20272;-81
2022/03/03 03:40:07;;;;;;;43.43;16.97;;;;;;;6.50;58.19;100713.25;6274117;22;20324;-80
2022/03/03 03:56:31;;;;;;;29.30;16.03;;;;;;;6.30;56.34;100709.69;6299354;22;20258;-80
2022/03/03 04:07:34;;;;;;;29.50;14.67;;;;;;;6.71;54.31;100706.16;6283557;22;20003;-80
2022/03/03 04:16:07;;;;;;;24.47;13.77;;;;;;;6.68;54.60;100703.78;6307383;22;20015;-83
2022/03/03 04:18:45;;;;;;;24.02;12.95;;;;;;;6.80;54.03;100696.59;6304457;22;20033;-82
2022/03/03 04:36:41;;;;;;;28.83;12.98;;;;;;;6.50;55.46;100681.66;6326252;22;20037;-81
2022/03/03 04:39:51;;;;;;;24.48;13.35;;;;;;;6.44;55.35;100683.03;6331193;22;20022;-81
2022/03/03 04:42:45;;;;;;;29.30;13.85;;;;;;;6.55;55.11;100672.41;6332143;22;20058;-80
2022/03/03 04:45:15;;;;;;;29.13;14.30;;;;;;;6.37;55.82;100681.03;6335425;22;19999;-79
2022/03/03 04:47:54;;;;;;;28.27;14.40;;;;;;;6.26;56.76;100673.25;6291085;22;20053;-82
2022/03/03 04:53:17;;;;;;;32.83;15.70;;;;;;;6.13;57.40;100669.00;6291637;22;20047;-82
2022/03/03 04:56:04;;;;;;;25.08;15.02;;;;;;;6.24;57.13;100668.09;6298161;22;20003;-81
2022/03/03 04:59:05;;;;;;;30.02;15.25;;;;;;;6.08;58.39;100663.31;6243774;23;20043;-81
2022/03/03 05:01:40;;;;;;;30.35;14.70;;;;;;;5.92;59.49;100659.47;6234972;23;20016;-81
2022/03/03 05:04:06;;;;;;;45.45;15.57;;;;;;;5.80;60.42;100663.13;6229713;23;20005;-81
2022/03/03 05:06:50;;;;;;;35.35;15.27;;;;;;;6.01;59.57;100669.22;6232829;23;20055;-82
2022/03/03 05:09:15;;;;;;;30.50;15.75;;;;;;;5.99;60.35;100665.91;6232995;22;20035;-83
2022/03/03 05:11:45;;;;;;;30.08;15.30;;;;;;;6.16;59.68;100662.69;6239456;23;20074;-82
2022/03/03 05:14:39;;;;;;;30.02;15.82;;;;;;;6.17;59.65;100653.78;6263363;23;20016;-80
2022/03/03 05:17:47;;;;;;;33.70;15.88;;;;;;;5.92;61.18;100655.06;6265391;23;20012;-81
2022/03/03 05:20:59;;;;;;;28.85;16.75;;;;;;;6.10;60.67;100647.38;6291795;22;20000;-83
2022/03/03 05:33:35;;;;;;;39.72;16.27;;;;;;;5.95;61.89;100646.91;6298328;22;20018;-81
2022/03/03 05:36:40;;;;;;;33.83;17.35;;;;;;;6.08;61.82;100654.59;6246333;22;20007;-81
2022/03/03 05:39:31;;;;;;;30.63;16.23;;;;;;;6.24;61.44;100660.22;6301438;22;19996;-82
2022/03/03 05:45:41;;;;;;;39.35;18.52;;;;;;;5.84;63.42;100646.94;6266051;22;20045;-83
2022/03/03 05:48:57;;;;;;;31.48;17.73;;;;;;;5.76;63.35;100638.03;6294416;22;20091;-82
2022/03/03 05:51:23;;;;;;;44.85;19.10;;;;;;;5.69;63.72;100646.44;6290959;22;20015;-82
2022/03/03 05:53:50;;;;;;;43.63;17.73;;;;;;;5.60;63.73;100643.75;6287252;22;20026;-83
2022/03/03 05:56:19;;;;;;;36.85;17.45;;;;;;;5.68;63.31;100657.06;6271751;22;20149;-83
2022/03/03 05:58:49;;;;;;;38.75;19.05;;;;;;;5.77;62.25;100653.66;6284985;22;20035;-82
2022/03/03 06:01:18;;;;;;;36.20;16.83;;;;;;;6.00;61.85;100662.31;6284454;22;20011;-82
2022/03/03 06:03:52;;;;;;;33.92;17.45;;;;;;;5.66;62.12;100674.78;6284402;22;20069;-83
2022/03/03 06:06:22;;;;;;;40.75;18.10;;;;;;;5.40;61.75;100668.19;6281255;22;20019;-83
2022/03/03 06:09:08;;;;;;;33.58;16.95;;;;;;;5.45;62.58;100677.38;6282195;22;20307;-86
2022/03/03 06:11:45;;;;;;;35.40;17.95;;;;;;;5.41;61.81;100670.69;6251189;22;20018;-81
2022/03/03 06:14:15;;;;;;;32.28;16.50;;;;;;;5.52;61.11;100670.66;6262840;22;20007;-80
2022/03/03 06:16:52;;;;;;;34.90;16.42;;;;;;;5.73;61.03;100684.63;6287953;22;20034;-82
2022/03/03 06:19:20;;;;;;;32.00;16.48;;;;;;;5.92;59.75;100672.63;6284281;22;20387;-85
2022/03/03 06:24:20;;;;;;;31.30;15.10;;;;;;;7.39;55.20;100684.25;6281203;22;20019;-84
2022/03/03 06:27:16;;;;;;;41.17;16.48;;;;;;;7.30;55.61;100687.72;6284646;22;20035;-91
2022/03/03 06:29:58;;;;;;;41.83;16.15;;;;;;;7.68;54.52;100693.03;6287390;22;20107;-88
2022/03/03 06:32:24;;;;;;;49.17;17.02;;;;;;;7.73;53.91;100696.06;6284402;22;20110;-91
2022/03/03 06:34:52;;;;;;;37.97;17.27;;;;;;;8.31;52.10;100701.28;6256554;22;20011;-86
2022/03/03 06:37:18;;;;;;;43.60;18.02;;;;;;;7.98;52.82;100704.38;6281656;22;20075;-86
2022/03/03 06:39:44;;;;;;;38.33;16.48;;;;;;;8.12;53.53;100701.31;6286315;22;20014;-85
2022/03/03 06:42:09;;;;;;;38.55;16.80;;;;;;;8.46;52.29;100701.66;6253630;22;20012;-85
2022/03/03 06:44:41;;;;;;;41.58;17.48;;;;;;;7.84;53.23;100696.88;6279679;22;20012;-84
2022/03/03 06:47:07;;;;;;;44.28;17.95;;;;;;;8.17;52.36;100704.34;6284230;22;20042;-84
2022/03/03 06:49:33;;;;;;;41.72;18.33;;;;;;;7.67;54.00;100701.91;6257051;22;20011;-86
2022/03/03 06:52:06;;;;;;;32.70;17.50;;;;;;;8.22;52.61;100710.84;6261731;22;20088;-84
2022/03/03 06:54:33;;;;;;;31.88;16.58;;;;;;;8.79;51.17;100715.16;6287509;22;20103;-84
2022/03/03 06:57:02;;;;;;;39.35;16.63;;;;;;;8.55;50.29;100725.38;6310267;22;20020;-85
2022/03/03 06:59:31;;;;;;;37.47;15.45;;;;;;;8.54;50.83;100717.63;6257494;22;20019;-84
2022/03/03 07:01:59;;;;;;;37.67;16.40;;;;;;;8.82;49.89;100716.66;6284277;22;20064;-87
2022/03/03 07:04:29;;;;;;;28.27;15.88;;;;;;;8.88;48.93;100724.03;6306406;22;20012;-85
2022/03/03 07:06:55;;;;;;;31.52;14.63;;;;;;;8.93;48.61;100707.72;6281964;22;20012;-87
2022/03/03 07:09:21;;;;;;;27.38;15.25;;;;;;;9.44;46.79;100701.84;6286738;22;20015;-85
2022/03/03 07:12:08;;;;;;;33.25;15.38;;;;;;;10.56;44.38;100716.97;6280806;22;20007;-86
2022/03/03 07:14:35;;;;;;;30.20;15.02;;;;;;;10.38;44.82;100714.38;6285420;22;20014;-86
2022/03/03 07:17:05;;;;;;;32.50;15.05;;;;;;;10.43;44.03;100709.47;6281581;22;20014;-85
2022/03/03 07:19:49;;;;;;;34.95;14.45;;;;;;;11.01;42.90;100716.69;6283137;22;20018;-88
2022/03/03 07:22:20;;;;;;;40.95;15.02;;;;;;;11.91;40.33;100727.38;6287160;22;20454;-86
2022/03/03 07:25:06;;;;;;;39.58;15.25;;;;;;;12.49;39.92;100734.31;6281265;22;20015;-87
2022/03/03 07:27:43;;;;;;;42.55;15.40;;;;;;;13.24;38.78;100732.91;6281493;22;20034;-85
2022/03/03 07:30:15;;;;;;;34.72;17.48;;;;;;;13.04;38.72;100742.28;6283552;22;20439;-86
2022/03/03 07:33:22;;;;;;;36.45;16.70;;;;;;;12.66;38.92;100744.72;6285260;22;20308;-85
2022/03/03 07:35:50;;;;;;;43.40;16.30;;;;;;;12.24;40.69;100738.81;6213263;22;20012;-86
2022/03/03 07:38:19;;;;;;;38.05;17.27;;;;;;;12.31;40.66;100734.47;6282885;22;20012;-85
2022/03/03 07:40:48;;;;;;;34.35;15.90;;;;;;;13.54;38.38;100729.41;6282680;22;20011;-86
2022/03/03 07:43:16;;;;;;;34.67;16.40;;;;;;;13.62;38.96;100731.19;6288354;22;20016;-87
2022/03/03 07:45:48;;;;;;;39.20;16.55;;;;;;;14.84;36.82;100739.78;6290992;22;20011;-86
2022/03/03 07:48:19;;;;;;;36.25;16.90;;;;;;;15.34;36.53;100737.16;6300002;22;20015;-86
2022/03/03 07:50:50;;;;;;;38.15;16.60;;;;;;;15.17;35.98;100738.38;6279757;22;20094;-86
2022/03/03 07:53:16;;;;;;;33.45;17.42;;;;;;;15.86;34.52;100744.94;6294454;22;20035;-84
2022/03/03 07:55:53;;;;;;;31.73;16.45;;;;;;;16.89;33.12;100747.81;6297804;22;20012;-86
2022/03/03 07:58:27;;;;;;;30.40;18.17;;;;;;;15.76;34.47;100740.91;6295685;22;20016;-84
2022/03/03 08:00:57;;;;;;;34.50;17.95;;;;;;;16.40;33.07;100744.38;6297035;22;20019;-87
2022/03/03 08:03:30;;;;;;;29.90;16.33;;;;;;;16.91;33.03;100750.28;6296220;22;20023;-85
2022/03/03 08:05:59;;;;;;;31.27;16.40;;;;;;;17.88;31.39;100745.50;6300432;22;20019;-87
2022/03/03 08:08:27;;;;;;;36.58;18.05;;;;;;;17.68;30.92;100755.38;6303953;22;19996;-87
2022/03/03 08:11:19;;;;;;;36.28;18.48;;;;;;;16.96;31.89;100746.00;6302249;22;19995;-86
2022/03/03 08:13:54;;;;;;;26.52;15.80;;;;;;;17.13;32.57;100745.66;6301143;22;20114;-87
2022/03/03 08:16:27;;;;;;;37.53;19.30;;;;;;;17.73;31.08;100743.00;6302352;22;20019;-87
2022/03/03 08:19:03;;;;;;;38.42;18.55;;;;;;;16.90;31.97;100740.63;6305227;22;20012;-85
2022/03/03 08:21:31;;;;;;;33.72;18.65;;;;;;;15.70;34.26;100742.50;6301933;22;20016;-84
2022/03/03 08:24:06;;;;;;;37.63;20.63;;;;;;;16.04;33.12;100744.50;6299762;22;20016;-86
2022/03/03 08:26:35;;;;;;;35.38;18.20;;;;;;;15.81;33.82;100727.81;6304691;22;20012;-87
2022/03/03 08:29:00;;;;;;;35.08;21.20;;;;;;;15.86;33.41;100728.06;6279127;22;20323;-87
2022/03/03 08:32:06;;;;;;;37.47;21.70;;;;;;;14.82;34.90;100737.28;6305958;22;20118;-85
2022/03/03 08:34:53;;;;;;;36.22;22.08;;;;;;;15.09;35.05;100737.63;6305654;22;19991;-85
2022/03/03 08:37:39;;;;;;;37.10;21.23;;;;;;;15.87;33.84;100727.88;6303413;22;19996;-89
2022/03/03 08:40:10;;;;;;;39.47;20.42;;;;;;;17.17;32.00;100736.22;6304099;22;20000;-85
2022/03/03 08:42:42;;;;;;;43.28;22.73;;;;;;;17.65;31.31;100735.16;6304552;22;20012;-85
2022/03/03 08:45:11;;;;;;;42.33;22.27;;;;;;;17.53;31.23;100726.03;6304379;22;19995;-86
2022/03/03 08:47:44;;;;;;;38.22;22.10;;;;;;;16.92;31.43;100739.38;6279012;22;20067;-87
2022/03/03 08:50:15;;;;;;;36.08;22.83;;;;;;;16.98;31.79;100727.88;6278781;22;20067;-85
2022/03/03 08:52:43;;;;;;;35.88;22.48;;;;;;;16.98;32.25;100733.25;6278973;22;20000;-87
2022/03/03 08:55:11;;;;;;;40.22;22.20;;;;;;;17.32;31.61;100723.50;6279274;22;20012;-87
2022/03/03 08:57:37;;;;;;;41.40;22.27;;;;;;;17.64;30.91;100730.81;6279563;22;20064;-88
2022/03/03 09:00:11;;;;;;;39.20;22.55;;;;;;;17.67;30.10;100721.53;6278711;22;20016;-89
2022/03/03 09:02:38;;;;;;;39.25;22.85;;;;;;;17.77;30.33;100727.34;6301221;22;20019;-86
2022/03/03 09:05:08;;;;;;;38.05;21.10;;;;;;;17.57;29.58;100721.94;6300733;22;20008;-88
2022/03/03 09:07:34;;;;;;;35.70;21.13;;;;;;;18.13;27.12;100722.41;6263030;22;20108;-84
2022/03/03 09:10:00;;;;;;;45.15;22.45;;;;;;;18.91;26.65;100716.16;6303131;22;20007;-84
2022/03/03 09:12:26;;;;;;;36.35;22.35;;;;;;;18.58;27.23;100715.41;6302611;22;20019;-87
2022/03/03 09:14:56;;;;;;;49.17;25.23;;;;;;;17.88;28.07;100714.16;6297130;22;20087;-85
2022/03/03 09:17:29;;;;;;;42.13;22.17;;;;;;;18.06;28.06;100721.63;6281953;22;20022;-85
2022/03/03 09:20:14;;;;;;;38.15;21.65;;;;;;;18.78;27.32;100705.44;6287693;22;20011;-85
2022/03/03 09:22:48;;;;;;;34.65;22.65;;;;;;;18.70;26.38;100702.97;6283620;22;20016;-86
2022/03/03 09:25:17;;;;;;;37.47;21.73;;;;;;;18.68;25.21;100705.06;6287300;22;20018;-84
2022/03/03 09:27:43;;;;;;;46.35;23.42;;;;;;;17.68;26.88;100697.22;6286021;22;20007;-86
2022/03/03 09:30:13;;;;;;;39.05;22.45;;;;;;;17.13;27.18;100697.47;6286101;22;20059;-85
2022/03/03 09:32:39;;;;;;;33.85;22.23;;;;;;;17.12;28.08;100693.97;6286300;22;20050;-86
2022/03/03 09:35:06;;;;;;;35.33;23.42;;;;;;;16.64;28.25;100695.78;6285072;22;20012;-86
2022/03/03 09:37:32;;;;;;;36.15;22.55;;;;;;;16.21;28.07;100692.38;6284606;22;20004;-85
2022/03/03 09:39:58;;;;;;;39.22;22.38;;;;;;;16.01;28.67;100681.50;6285027;22;20011;-86
2022/03/03 09:42:37;;;;;;;39.15;20.90;;;;;;;16.87;26.82;100690.94;6284469;22;20008;-86
2022/03/03 09:45:17;;;;;;;34.45;20.08;;;;;;;17.13;25.75;100692.09;6260518;22;20012;-86
2022/03/03 09:47:43;;;;;;;38.83;22.00;;;;;;;15.87;26.75;100694.97;6288037;22;20011;-86
2022/03/03 09:50:09;;;;;;;40.60;22.50;;;;;;;15.23;27.58;100694.06;6287579;22;20099;-86
2022/03/03 09:52:35;;;;;;;35.38;21.30;;;;;;;16.04;27.17;100697.16;6281428;22;20376;-84
2022/03/03 09:55:01;;;;;;;37.50;21.58;;;;;;;15.78;27.25;100688.91;6279437;22;20012;-84
2022/03/03 09:57:28;;;;;;;41.67;22.40;;;;;;;15.78;27.54;100683.56;6285989;22;20015;-83
2022/03/03 09:59:53;;;;;;;34.25;22.30;;;;;;;15.42;28.25;100672.09;6280176;22;20037;-86
2022/03/03 10:02:19;;;;;;;47.85;23.10;;;;;;;14.94;28.80;100671.78;6302700;22;20008;-87
2022/03/03 10:04:44;;;;;;;38.47;22.88;;;;;;;15.21;29.06;100669.41;6285892;22;20022;-81
2022/03/03 10:07:11;;;;;;;37.17;21.70;;;;;;;16.68;26.94;100672.94;6282185;22;20083;-82
2022/03/03 10:12:23;;;;;;;40.92;22.42;;;;;;;17.16;25.38;100663.06;6279386;22;20007;-85
2022/03/03 10:14:49;;;;;;;39.35;21.70;;;;;;;18.46;23.72;100668.75;6281242;22;20015;-86
2022/03/03 10:17:16;;;;;;;36.13;21.85;;;;;;;17.80;24.78;100666.09;6281468;22;20087;-87
2022/03/03 10:19:53;;;;;;;38.78;22.92;;;;;;;17.77;25.54;100674.56;6281142;22;20509;-86
2022/03/03 10:22:25;;;;;;;38.25;22.60;;;;;;;18.50;24.54;100664.63;6286196;22;20008;-89
2022/03/03 10:24:54;;;;;;;38.33;22.73;;;;;;;19.16;24.06;100665.19;6287623;22;20457;-85
2022/03/03 10:27:22;;;;;;;37.55;22.77;;;;;;;18.53;24.95;100669.56;6276672;22;20469;-91
2022/03/03 10:30:05;;;;;;;39.13;22.88;;;;;;;19.29;23.31;100659.75;6286823;22;20022;-90
2022/03/03 10:32:33;;;;;;;37.05;21.73;;;;;;;18.93;23.44;100668.41;6244700;22;20100;-87
2022/03/03 10:35:17;;;;;;;35.45;21.65;;;;;;;19.39;23.25;100659.31;6279014;22;20039;-86
2022/03/03 10:37:47;;;;;;;35.35;22.23;;;;;;;18.71;24.06;100659.00;6281497;22;20507;-85
2022/03/03 10:40:16;;;;;;;35.72;22.67;;;;;;;18.32;24.49;100651.00;6286723;22;20007;-85
2022/03/03 10:42:48;;;;;;;39.30;22.92;;;;;;;19.60;23.49;100656.28;6273695;22;20037;-85
2022/03/03 10:45:19;;;;;;;36.08;21.77;;;;;;;19.66;23.24;100659.97;6257608;22;20419;-86
2022/03/03 10:47:46;;;;;;;38.22;23.33;;;;;;;20.41;22.66;100658.94;6272263;22;20106;-85
2022/03/03 10:50:12;;;;;;;39.55;22.95;;;;;;;20.14;22.43;100650.28;6278109;22;20003;-86
2022/03/03 10:52:40;;;;;;;35.00;22.20;;;;;;;20.08;22.37;100653.84;6303646;22;20068;-85
2022/03/03 10:55:14;;;;;;;38.67;23.13;;;;;;;19.22;22.81;100650.09;6280082;22;20012;-87
2022/03/03 10:57:58;;;;;;;35.03;20.88;;;;;;;19.35;22.84;100647.34;6279144;22;20440;-85
2022/03/03 11:00:26;;;;;;;36.28;21.20;;;;;;;17.96;22.84;100636.19;6279601;22;20008;-86
2022/03/03 11:03:02;;;;;;;35.97;20.77;;;;;;;17.35;24.32;100623.97;6279647;22;20012;-82
2022/03/03 11:05:29;;;;;;;34.00;21.13;;;;;;;16.88;25.01;100623.00;6282576;22;20059;-83
2022/03/03 11:07:58;;;;;;;37.95;21.27;;;;;;;16.64;25.73;100628.88;6279401;22;20010;-84
2022/03/03 11:10:33;;;;;;;43.15;21.75;;;;;;;16.34;26.45;100617.56;6289556;22;20004;-88
2022/03/03 11:12:59;;;;;;;36.28;20.80;;;;;;;15.47;27.85;100605.59;6296900;22;20023;-85
2022/03/03 11:15:28;;;;;;;37.75;21.92;;;;;;;14.41;29.46;100597.41;6297689;22;20027;-87
2022/03/03 11:17:55;;;;;;;42.78;23.38;;;;;;;14.12;30.47;100592.06;6296400;22;20019;-87
2022/03/03 11:20:24;;;;;;;40.80;23.30;;;;;;;14.07;30.79;100589.09;6272868;22;20007;-88
2022/03/03 11:22:57;;;;;;;48.42;23.73;;;;;;;13.94;31.04;100585.25;6296780;22;20030;-91
2022/03/03 11:25:31;;;;;;;37.90;22.08;;;;;;;14.05;30.35;100588.47;6246635;22;20042;-89
2022/03/03 11:28:07;;;;;;;41.35;23.52;;;;;;;14.47;29.88;100567.34;6292448;22;20020;-90
2022/03/03 11:30:35;;;;;;;37.90;22.15;;;;;;;14.10;30.38;100562.91;6297834;22;20063;-87
2022/03/03 11:33:25;;;;;;;40.88;23.25;;;;;;;14.08;30.73;100566.78;6299138;22;20457;-88
2022/03/03 11:36:01;;;;;;;41.15;23.23;;;;;;;14.13;31.00;100559.03;6299213;22;20015;-87
2022/03/03 11:38:43;;;;;;;39.60;23.15;;;;;;;14.33;30.55;100555.66;6272852;22;20115;-89
2022/03/03 11:41:09;;;;;;;44.15;24.17;;;;;;;14.08;31.07;100540.13;6299483;22;20009;-88
2022/03/03 11:43:59;;;;;;;39.10;23.48;;;;;;;14.18;30.82;100540.69;6300080;22;20890;-88
2022/03/03 11:46:50;;;;;;;40.40;21.25;;;;;;;14.47;30.19;100527.34;6299931;22;20355;-89
2022/03/03 11:49:31;;;;;;;38.22;22.30;;;;;;;15.90;28.37;100528.88;6249085;22;20023;-90
2022/03/03 11:52:10;;;;;;;40.13;22.55;;;;;;;16.06;28.45;100519.72;6276340;22;20019;-88
2022/03/03 11:54:41;;;;;;;42.40;22.70;;;;;;;16.37;27.87;100512.84;6272852;22;20016;-87
2022/03/03 11:57:27;;;;;;;43.10;23.65;;;;;;;16.49;27.29;100503.25;6298891;22;19995;-90
2022/03/03 12:00:00;;;;;;;41.50;23.30;;;;;;;16.10;27.80;100504.94;6270778;22;20011;-87
2022/03/03 12:02:32;;;;;;;47.47;24.15;;;;;;;15.90;28.29;100494.97;6296165;22;20011;-87
2022/03/03 12:05:55;;;;;;;33.97;19.25;;;;;;;16.49;27.53;100486.34;6297620;22;20028;-90
2022/03/03 12:08:21;;;;;;;38.45;21.95;;;;;;;16.68;27.18;100485.63;6131574;23;20082;-90
2022/03/03 12:11:01;;;;;;;35.10;22.23;;;;;;;15.87;28.26;100473.97;6180186;23;20025;-89
2022/03/03 12:13:38;;;;;;;37.75;23.40;;;;;;;16.86;26.94;100468.97;6151818;23;20013;-87
2022/03/03 12:16:19;;;;;;;39.97;22.38;;;;;;;19.38;24.24;100464.13;6173529;23;20006;-91
2022/03/03 12:18:50;;;;;;;42.63;24.65;;;;;;;20.11;23.42;100455.13;6159679;22;20029;-88
2022/03/03 12:21:36;;;;;;;39.40;23.75;;;;;;;19.93;23.06;100462.34;6278975;22;20011;-88
2022/03/03 12:24:14;;;;;;;36.80;23.50;;;;;;;17.44;25.59;100446.72;6281328;22;20015;-87
2022/03/03 12:26:54;;;;;;;40.40;22.35;;;;;;;16.47;26.84;100445.63;6282050;22;20149;-88
2022/03/03 12:29:42;;;;;;;40.22;23.15;;;;;;;15.71;28.26;100458.22;6282435;22;20299;-88
2022/03/03 12:32:41;;;;;;;41.33;23.08;;;;;;;15.12;29.31;100435.59;6282887;22;20106;-88
2022/03/03 12:35:36;;;;;;;43.38;23.00;;;;;;;14.81;29.87;100433.31;6259792;22;20019;-86
2022/03/03 12:38:05;;;;;;;44.78;23.02;;;;;;;14.30;30.57;100421.88;6279858;22;20030;-86
2022/03/03 12:40:31;;;;;;;40.70;24.30;;;;;;;13.99;31.41;100414.13;6279196;22;20039;-87
2022/03/03 12:42:58;;;;;;;42.92;22.85;;;;;;;14.28;30.74;100414.09;6282354;22;20026;-86
2022/03/03 12:45:24;;;;;;;51.95;23.08;;;;;;;14.19;31.24;100404.53;6281703;22;20012;-86
2022/03/03 12:48:13;;;;;;;44.03;23.45;;;;;;;14.15;31.38;100402.44;6259519;22;20033;-85
2022/03/03 12:50:40;;;;;;;43.55;24.63;;;;;;;13.90;31.50;100399.28;6285502;22;20073;-86
2022/03/03 12:53:10;;;;;;;38.97;22.33;;;;;;;14.02;31.48;100380.97;6282102;22;20015;-86
2022/03/03 12:55:39;;;;;;;42.13;21.50;;;;;;;14.57;30.74;100381.19;6253535;22;20015;-87
2022/03/03 12:58:14;;;;;;;36.42;22.80;;;;;;;14.56;30.94;100376.84;6258600;22;20565;-91
2022/03/03 13:00:46;;;;;;;36.92;23.00;;;;;;;14.62;30.95;100383.25;6285421;22;20007;-89
2022/03/03 13:03:31;;;;;;;39.97;23.02;;;;;;;14.69;31.15;100374.28;6288236;22;20043;-86
2022/03/03 13:06:06;;;;;;;38.97;23.83;;;;;;;14.63;31.03;100367.06;6285546;22;20500;-86
2022/03/03 13:08:36;;;;;;;36.05;22.40;;;;;;;14.92;30.71;100358.88;6287868;22;20012;-85
2022/03/03 13:11:11;;;;;;;41.22;22.30;;;;;;;15.12;30.56;100352.84;6284812;22;20068;-88
2022/03/03 13:13:55;;;;;;;38.00;22.95;;;;;;;15.38;29.92;100353.00;6283345;22;20012;-88
2022/03/03 13:16:26;;;;;;;39.17;22.42;;;;;;;15.32;29.62;100343.13;6284563;22;20019;-88
2022/03/03 13:18:53;;;;;;;37.55;22.75;;;;;;;14.80;30.42;100343.59;6280630;22;20317;-86
2022/03/03 13:21:23;;;;;;;40.28;23.63;;;;;;;14.53;30.86;100339.06;6295774;22;20015;-81
2022/03/03 13:23:55;;;;;;;43.80;24.13;;;;;;;14.41;31.67;100333.44;6308119;22;20029;-83
2022/03/03 13:26:27;;;;;;;29.00;17.35;;;;;;;14.43;31.54;100316.22;6309474;22;20012;-85
2022/03/03 13:28:59;;;;;;;45.03;24.88;;;;;;;14.22;32.25;100323.38;6282408;22;20388;-84
2022/03/03 13:31:25;;;;;;;42.13;24.48;;;;;;;14.57;32.01;100316.34;6308764;22;20008;-84
2022/03/03 13:33:56;;;;;;;45.63;24.15;;;;;;;14.56;31.60;100320.00;6308298;22;20077;-80
2022/03/03 13:36:28;;;;;;;38.50;23.35;;;;;;;14.32;31.91;100308.69;6308372;22;20014;-81
2022/03/03 13:38:56;;;;;;;39.90;23.23;;;;;;;14.44;31.99;100301.06;6309800;22;20435;-85
2022/03/03 13:41:40;;;;;;;39.10;23.85;;;;;;;14.15;32.51;100295.84;6309324;22;20019;-84
2022/03/03 13:44:14;;;;;;;41.25;24.38;;;;;;;14.16;32.68;100292.13;6315037;22;20011;-83
2022/03/03 13:46:42;;;;;;;38.03;23.20;;;;;;;14.28;32.61;100285.31;6302038;22;20108;-84
2022/03/03 13:49:22;;;;;;;43.53;23.25;;;;;;;14.42;32.27;100276.41;6308135;22;20132;-80
2022/03/03 13:52:03;;;;;;;42.42;24.48;;;;;;;14.55;31.60;100268.50;6308931;22;20007;-82
2022/03/03 13:54:40;;;;;;;49.25;23.95;;;;;;;14.63;31.97;100271.03;6281016;22;20007;-82
2022/03/03 13:57:06;;;;;;;38.33;23.33;;;;;;;14.34;32.14;100271.22;6308987;22;20334;-83
2022/03/03 13:59:54;;;;;;;42.83;23.88;;;;;;;14.61;32.15;100270.44;6308817;22;20038;-85
2022/03/03 14:02:20;;;;;;;41.35;23.38;;;;;;;14.60;31.83;100263.44;6309316;22;20015;-82
2022/03/03 14:05:04;;;;;;;42.50;24.70;;;;;;;14.32;32.46;100257.22;6293076;22;20014;-84
2022/03/03 14:07:32;;;;;;;45.72;23.42;;;;;;;14.49;32.57;100250.63;6305173;22;20390;-84
2022/03/03 14:10:04;;;;;;;38.95;23.58;;;;;;;14.56;32.52;100256.84;6320828;22;20053;-83
2022/03/03 14:12:32;;;;;;;48.47;23.17;;;;;;;14.57;32.62;100249.66;6321733;22;20036;-84
2022/03/03 14:15:01;;;;;;;42.22;22.88;;;;;;;14.51;32.71;100253.94;6317533;22;20018;-84
2022/03/03 14:17:27;;;;;;;40.75;23.30;;;;;;;14.40;33.15;100249.13;6314111;22;20436;-84